Bonao, Dominican Republic
Current Conditions -  °F | °C
As of 8:00 AM on Thursday 29 Jan 2015 (Local Time) from MDST Reporting Station
Broken Clouds Broken Clouds  
Wind Chill: 66°   Ceiling: 1400
Heat Index: 66°   Visibility: 6mi
Dew Point: 64°   Wind: 8mph
Humidity: 94%   Direction: 280°W
Pressure: 30.03"   Gusts: NA
Location:  18.95°N, 70.41°W
Report Text: MDST 291200Z 28007KT 9999 BKN014 BKN070 19/18 Q1017
Loading
Personal Weather Stations






























Interactive Weather Map New forecast layout! Learn more

10-Day Weather Forecast

Advertisements
Track Severe Weather on mobile